createdAt,value
2022-08-26T07:10:13.222Z,3636.00
2022-08-26T07:11:03.730Z,3508.00
2022-08-26T07:12:04.873Z,3352.00
2022-08-26T07:13:06.965Z,3116.00
2022-08-26T07:14:03.912Z,2632.00
2022-08-26T07:15:10.334Z,2436.00
2022-08-26T07:16:04.225Z,2740.00
2022-08-26T07:17:05.295Z,3072.00
2022-08-26T07:18:05.323Z,3024.00
2022-08-26T07:19:11.260Z,2872.00
2022-08-26T07:20:05.271Z,2884.00
2022-08-26T07:21:03.709Z,3156.00
2022-08-26T07:22:03.877Z,3408.00
2022-08-26T07:23:05.309Z,3760.00
2022-08-26T07:24:03.720Z,3660.00
2022-08-26T07:25:05.295Z,3616.00
2022-08-26T07:26:03.736Z,3112.00
2022-08-26T07:27:05.674Z,3332.00
2022-08-26T07:28:03.718Z,3860.00
2022-08-26T07:29:03.758Z,3816.00
2022-08-26T07:30:04.031Z,3820.00
2022-08-26T07:31:05.505Z,3848.00
2022-08-26T07:32:06.226Z,3940.00
2022-08-26T07:33:03.885Z,4008.00
2022-08-26T07:34:03.721Z,3928.00
2022-08-26T07:35:05.303Z,3912.00
2022-08-26T07:36:04.197Z,3872.00
2022-08-26T07:37:03.728Z,3904.00
2022-08-26T07:38:04.211Z,3904.00
2022-08-26T07:39:06.395Z,3720.00
2022-08-26T07:40:03.804Z,2936.00
2022-08-26T07:41:06.369Z,3536.00
2022-08-26T07:42:07.486Z,3860.00
2022-08-26T07:43:03.759Z,4044.00
2022-08-26T07:44:04.325Z,4120.00
2022-08-26T07:45:03.768Z,3664.00
2022-08-26T07:46:03.818Z,3884.00
2022-08-26T07:47:03.805Z,3996.00
2022-08-26T07:48:04.771Z,4076.00
2022-08-26T07:49:03.793Z,3852.00
2022-08-26T07:50:05.326Z,3828.00
2022-08-26T07:51:03.911Z,3476.00
2022-08-26T07:52:07.937Z,3236.00
2022-08-26T07:53:03.813Z,2668.00
2022-08-26T07:54:03.762Z,2676.00
2022-08-26T07:55:03.897Z,2820.00
2022-08-26T07:56:03.793Z,3184.00
2022-08-26T07:57:15.742Z,3288.00
2022-08-26T07:58:03.795Z,3312.00
2022-08-26T07:59:04.198Z,3228.00
2022-08-26T08:00:03.991Z,3288.00
2022-08-26T08:01:18.671Z,3560.00
2022-08-26T08:02:04.125Z,3492.00
2022-08-26T08:03:03.789Z,3768.00
2022-08-26T08:04:05.357Z,3992.00
2022-08-26T08:05:03.860Z,4096.00
2022-08-26T08:06:05.331Z,4172.00
2022-08-26T08:07:05.376Z,4124.00
2022-08-26T08:08:26.329Z,4124.00
2022-08-26T08:09:18.948Z,3816.00
2022-08-26T08:10:09.620Z,3680.00
2022-08-26T08:11:03.811Z,3692.00
2022-08-26T08:12:05.444Z,3608.00
2022-08-26T08:13:03.848Z,3836.00
2022-08-26T08:14:03.835Z,3448.00
2022-08-26T08:15:05.189Z,3368.00
2022-08-26T08:16:03.818Z,3336.00
2022-08-26T08:17:04.032Z,4232.00
2022-08-26T08:19:03.892Z,4280.00
2022-08-26T08:20:05.382Z,3040.00
2022-08-26T08:21:21.185Z,3892.00
2022-08-26T08:22:13.328Z,2972.00
2022-08-26T08:23:05.351Z,3060.00
2022-08-26T08:24:03.859Z,2780.00
2022-08-26T08:25:06.275Z,2716.00
2022-08-26T08:26:04.850Z,3536.00
2022-08-26T08:27:04.855Z,3336.00
2022-08-26T08:28:04.876Z,3064.00
2022-08-26T08:29:04.857Z,4160.00
2022-08-26T08:30:05.852Z,4200.00
2022-08-26T08:31:04.970Z,3828.00
2022-08-26T08:32:05.986Z,3044.00
2022-08-26T08:33:04.888Z,3176.00
2022-08-26T08:34:05.924Z,3564.00
2022-08-26T08:35:11.087Z,3444.00
2022-08-26T08:36:05.970Z,3172.00
2022-08-26T08:37:06.154Z,2968.00
2022-08-26T08:38:05.014Z,2944.00
2022-08-26T08:39:06.493Z,2936.00
2022-08-26T08:40:03.983Z,2944.00
2022-08-26T08:41:05.893Z,2928.00
2022-08-26T08:42:03.926Z,2916.00
2022-08-26T08:43:04.153Z,2896.00
2022-08-26T08:44:03.901Z,2888.00
2022-08-26T08:45:05.869Z,3200.00
2022-08-26T08:46:04.402Z,3884.00
2022-08-26T08:47:03.941Z,3908.00
2022-08-26T08:48:03.919Z,3392.00
2022-08-26T08:49:04.930Z,2868.00
2022-08-26T08:50:05.890Z,2640.00
2022-08-26T08:51:05.922Z,2672.00
2022-08-26T08:52:05.891Z,3152.00
2022-08-26T08:53:03.974Z,3512.00
2022-08-26T08:54:05.891Z,2824.00
2022-08-26T08:55:03.978Z,4128.00
2022-08-26T08:56:05.874Z,4180.00
2022-08-26T08:57:05.970Z,4016.00
2022-08-26T08:58:08.145Z,4464.00
2022-08-26T08:59:05.881Z,4492.00
2022-08-26T09:00:05.909Z,4420.00
2022-08-26T09:01:05.034Z,4304.00
2022-08-26T09:02:06.512Z,4200.00
2022-08-26T09:03:05.006Z,4172.00
2022-08-26T09:04:05.899Z,4256.00
2022-08-26T09:05:05.883Z,4296.00
2022-08-26T09:06:05.890Z,4132.00
2022-08-26T09:07:05.923Z,4112.00
2022-08-26T09:08:06.517Z,4044.00
2022-08-26T09:09:05.908Z,3972.00
2022-08-26T09:10:07.923Z,3728.00
2022-08-26T09:12:05.938Z,3832.00
2022-08-26T09:13:05.011Z,3616.00
2022-08-26T09:14:04.002Z,3720.00
2022-08-26T09:15:06.097Z,3100.00
2022-08-26T09:16:06.421Z,3164.00
2022-08-26T09:17:04.092Z,3764.00
2022-08-26T09:18:05.805Z,3448.00
2022-08-26T09:19:05.996Z,3452.00
2022-08-26T09:20:04.229Z,4356.00
2022-08-26T09:21:05.956Z,4400.00
2022-08-26T09:22:09.411Z,4332.00
2022-08-26T09:23:04.929Z,4512.00
2022-08-26T09:24:04.033Z,4264.00
2022-08-26T09:25:04.031Z,4544.00
2022-08-26T09:26:05.960Z,4232.00
2022-08-26T09:29:06.321Z,4080.00
2022-08-26T09:30:05.979Z,3472.00
2022-08-26T09:31:07.939Z,4016.00
2022-08-26T09:32:04.081Z,3580.00
2022-08-26T09:33:06.654Z,3264.00
2022-08-26T09:34:07.335Z,3216.00
2022-08-26T09:35:06.153Z,3144.00
2022-08-26T09:36:07.243Z,3080.00
2022-08-26T09:37:09.831Z,2992.00
2022-08-26T09:38:10.441Z,2920.00
2022-08-26T09:39:05.300Z,2844.00
2022-08-26T09:40:04.137Z,2888.00
2022-08-26T09:41:06.343Z,2912.00
2022-08-26T09:42:04.135Z,3004.00
2022-08-26T09:43:04.105Z,3036.00
2022-08-26T09:44:07.160Z,3080.00
2022-08-26T09:45:04.128Z,3080.00
2022-08-26T09:46:04.370Z,3064.00
2022-08-26T09:47:04.222Z,3008.00
2022-08-26T09:48:06.060Z,3040.00
2022-08-26T09:49:04.591Z,2996.00
2022-08-26T09:50:04.132Z,3016.00
2022-08-26T09:51:06.944Z,3080.00
2022-08-26T09:52:04.169Z,3164.00
2022-08-26T09:53:04.247Z,3260.00
2022-08-26T09:54:08.120Z,3360.00
2022-08-26T09:55:05.940Z,3456.00
2022-08-26T09:56:06.020Z,3592.00
2022-08-26T09:57:06.000Z,4388.00
2022-08-26T09:58:09.105Z,4404.00
2022-08-26T09:59:06.467Z,4148.00
2022-08-26T10:00:05.999Z,3792.00
2022-08-26T10:01:06.016Z,3512.00
2022-08-26T10:13:05.479Z,4164.00
2022-08-26T10:14:05.889Z,4264.00
2022-08-26T10:15:05.886Z,4188.00
2022-08-26T10:16:05.860Z,4120.00
2022-08-26T10:17:04.438Z,4112.00
2022-08-26T10:18:05.987Z,4172.00
2022-08-26T10:19:04.276Z,4372.00
2022-08-26T10:20:04.302Z,4384.00
2022-08-26T10:21:04.279Z,4388.00
2022-08-26T10:22:05.882Z,4724.00
2022-08-26T10:23:04.288Z,4592.00
2022-08-26T10:24:04.303Z,4756.00
2022-08-26T10:25:05.912Z,4620.00
2022-08-26T10:26:06.917Z,4880.00
2022-08-26T10:27:05.880Z,5032.00
2022-08-26T10:28:06.166Z,4896.00
2022-08-26T10:29:05.885Z,5064.00
2022-08-26T10:30:04.345Z,5000.00
2022-08-26T10:31:05.914Z,4880.00
2022-08-26T10:32:06.958Z,4868.00
2022-08-26T10:34:05.902Z,5192.00
2022-08-26T10:35:05.906Z,5264.00
2022-08-26T10:36:05.916Z,5108.00
2022-08-26T10:37:13.732Z,4804.00
2022-08-26T10:38:05.997Z,4276.00
2022-08-26T10:39:05.949Z,3716.00
2022-08-26T10:40:05.938Z,3736.00
2022-08-26T10:41:09.771Z,3932.00
2022-08-26T10:42:05.896Z,4276.00
2022-08-26T10:43:11.140Z,4664.00
2022-08-26T10:44:05.973Z,4716.00
2022-08-26T10:45:05.904Z,4740.00
2022-08-26T10:46:05.921Z,4704.00
2022-08-26T10:47:05.949Z,4784.00
2022-08-26T10:48:06.146Z,4476.00
2022-08-26T10:49:06.510Z,4148.00
2022-08-26T10:50:04.441Z,4188.00
2022-08-26T10:51:04.433Z,4128.00
2022-08-26T10:52:04.419Z,4112.00
2022-08-26T10:53:06.434Z,4024.00
2022-08-26T10:54:06.421Z,3732.00
2022-08-26T10:55:04.438Z,3572.00
2022-08-26T10:56:06.421Z,3580.00
2022-08-26T10:57:04.486Z,3520.00
2022-08-26T10:58:05.094Z,3584.00
2022-08-26T10:59:06.473Z,3748.00
2022-08-26T11:00:04.468Z,3916.00
2022-08-26T11:01:10.583Z,4152.00
2022-08-26T11:02:04.466Z,4388.00
2022-08-26T11:03:04.491Z,4936.00
2022-08-26T11:04:06.503Z,5448.00
2022-08-26T11:05:05.515Z,5744.00
2022-08-26T11:06:05.522Z,5744.00
2022-08-26T11:07:05.545Z,5396.00
2022-08-26T11:08:05.590Z,5276.00
2022-08-26T11:09:06.942Z,4980.00
2022-08-26T11:10:05.509Z,4472.00
2022-08-26T11:11:04.529Z,5036.00
2022-08-26T11:12:10.211Z,6008.00
2022-08-26T11:13:07.476Z,6492.00
2022-08-26T11:14:05.492Z,6684.00
2022-08-26T11:15:05.581Z,6580.00
2022-08-26T11:16:06.876Z,6700.00
2022-08-26T11:17:08.106Z,6688.00
2022-08-26T11:18:04.990Z,6740.00
2022-08-26T11:19:06.464Z,6780.00
2022-08-26T11:20:13.442Z,6192.00
2022-08-26T11:21:04.579Z,6392.00
2022-08-26T11:22:04.595Z,6788.00
2022-08-26T11:23:04.635Z,6872.00
2022-08-26T11:24:04.597Z,6952.00
2022-08-26T11:25:06.457Z,6856.00
2022-08-26T11:26:04.612Z,7228.00
2022-08-26T11:27:04.667Z,7144.00
2022-08-26T11:28:06.494Z,7208.00
2022-08-26T11:29:04.627Z,7032.00
2022-08-26T11:30:06.460Z,7048.00
2022-08-26T11:31:04.726Z,7152.00
2022-08-26T11:32:06.463Z,7364.00
2022-08-26T11:33:06.494Z,7328.00
2022-08-26T11:34:12.954Z,7768.00
2022-08-26T11:35:05.048Z,7124.00
2022-08-26T11:36:12.097Z,8004.00
2022-08-26T11:37:12.520Z,8228.00
2022-08-26T11:38:04.704Z,8288.00
2022-08-26T11:39:06.502Z,8208.00
2022-08-26T11:40:07.457Z,7840.00
2022-08-26T11:41:06.462Z,7684.00
2022-08-26T11:42:06.462Z,7560.00
2022-08-26T11:43:06.457Z,7460.00
2022-08-26T11:44:06.481Z,7404.00
2022-08-26T11:45:06.467Z,7508.00
2022-08-26T11:46:06.501Z,7588.00
2022-08-26T11:47:06.481Z,7780.00
2022-08-26T11:48:06.482Z,7904.00
2022-08-26T11:49:06.475Z,8188.00
2022-08-26T11:50:06.484Z,8136.00
2022-08-26T11:51:06.473Z,8332.00
2022-08-26T11:52:06.473Z,8524.00
2022-08-26T11:53:06.595Z,8392.00
2022-08-26T11:54:04.826Z,8392.00
2022-08-26T11:55:06.492Z,8776.00
2022-08-26T11:56:04.825Z,8928.00
2022-08-26T11:57:09.277Z,9304.00
2022-08-26T11:58:06.612Z,9472.00
2022-08-26T11:59:04.852Z,8472.00
2022-08-26T12:00:08.383Z,6628.00
2022-08-26T12:01:09.843Z,6116.00
2022-08-26T12:02:06.488Z,6304.00
2022-08-26T12:03:06.731Z,8792.00
2022-08-26T12:04:06.707Z,8912.00
2022-08-26T12:05:06.510Z,9052.00
2022-08-26T12:06:06.499Z,9236.00
2022-08-26T12:07:06.513Z,8276.00
2022-08-26T12:08:04.926Z,9092.00
2022-08-26T12:09:06.569Z,9480.00
2022-08-26T12:10:06.517Z,9332.00
2022-08-26T12:11:06.510Z,9392.00
2022-08-26T12:12:06.523Z,9696.00
2022-08-26T12:13:04.980Z,10228.00
2022-08-26T12:14:04.984Z,10168.00
2022-08-26T12:15:06.517Z,9848.00
2022-08-26T12:16:05.064Z,8924.00
2022-08-26T12:17:05.041Z,9896.00
2022-08-26T12:18:05.086Z,10068.00
2022-08-26T12:19:05.024Z,9632.00
2022-08-26T12:20:07.020Z,9172.00
2022-08-26T12:21:05.066Z,8720.00
2022-08-26T12:22:07.062Z,8080.00
2022-08-26T12:23:05.061Z,7616.00
2022-08-26T12:24:05.070Z,7556.00
2022-08-26T12:25:05.082Z,7296.00
2022-08-26T12:26:07.034Z,7020.00
2022-08-26T12:27:05.102Z,6780.00
2022-08-26T12:28:05.216Z,6752.00
2022-08-26T12:29:09.429Z,7148.00
2022-08-26T12:30:06.746Z,8000.00
2022-08-26T12:31:07.038Z,9876.00
2022-08-26T12:32:07.024Z,9872.00
2022-08-26T12:33:13.323Z,9860.00
2022-08-26T12:34:07.038Z,9936.00
2022-08-26T12:36:07.061Z,9888.00
2022-08-26T12:37:05.203Z,10048.00
2022-08-26T12:38:05.199Z,10904.00
2022-08-26T12:39:07.109Z,11684.00
2022-08-26T12:40:05.269Z,12116.00
2022-08-26T12:41:07.050Z,11744.00
2022-08-26T12:42:05.244Z,11356.00
2022-08-26T12:43:05.250Z,11180.00
2022-08-26T12:44:07.261Z,11256.00
2022-08-26T12:45:05.273Z,11336.00
2022-08-26T12:46:08.998Z,10332.00
2022-08-26T12:47:05.294Z,9440.00
2022-08-26T12:48:05.334Z,9356.00
2022-08-26T12:49:07.063Z,10704.00
2022-08-26T12:50:05.331Z,11032.00
2022-08-26T12:51:07.072Z,11744.00
2022-08-26T12:52:07.081Z,12764.00
2022-08-26T12:53:07.055Z,14044.00
2022-08-26T12:54:07.054Z,14332.00
2022-08-26T12:55:07.056Z,14596.00
2022-08-26T12:56:07.072Z,14792.00
2022-08-26T12:57:07.070Z,15196.00
2022-08-26T12:58:07.201Z,15452.00
2022-08-26T12:59:07.163Z,15852.00
2022-08-26T13:00:05.413Z,15624.00
2022-08-26T13:01:05.543Z,9028.00
2022-08-26T13:02:07.169Z,8908.00
2022-08-26T13:03:07.430Z,9136.00
2022-08-26T13:04:07.085Z,15936.00
2022-08-26T13:05:07.068Z,16500.00
2022-08-26T13:06:07.073Z,16004.00
2022-08-26T13:07:07.091Z,15464.00
2022-08-26T13:08:07.071Z,16832.00
2022-08-26T13:09:07.105Z,13980.00
2022-08-26T13:10:07.078Z,12844.00
2022-08-26T13:11:07.076Z,14652.00
2022-08-26T13:12:07.079Z,16808.00
2022-08-26T13:13:07.307Z,17692.00
2022-08-26T13:14:07.389Z,16888.00
2022-08-26T13:15:07.135Z,15800.00
2022-08-26T13:16:07.158Z,15668.00
2022-08-26T13:17:07.597Z,16108.00
2022-08-26T13:18:07.589Z,16188.00
2022-08-26T13:19:10.164Z,15780.00
2022-08-26T13:20:07.611Z,16192.00
2022-08-26T13:21:05.646Z,16104.00
2022-08-26T13:22:07.636Z,15968.00
2022-08-26T13:23:05.665Z,17288.00
2022-08-26T13:24:05.672Z,18528.00
2022-08-26T13:25:07.617Z,18496.00
2022-08-26T13:26:05.694Z,18528.00
2022-08-26T13:27:05.706Z,18168.00
2022-08-26T13:28:05.721Z,18816.00
2022-08-26T13:29:09.687Z,18880.00
2022-08-26T13:30:07.637Z,19552.00
2022-08-26T13:31:05.780Z,20160.00
2022-08-26T13:32:05.767Z,20352.00
2022-08-26T13:33:05.810Z,17792.00
2022-08-26T13:34:05.786Z,20576.00
2022-08-26T13:35:07.630Z,21408.00
2022-08-26T13:36:07.624Z,20608.00
2022-08-26T13:37:05.815Z,19328.00
2022-08-26T13:38:07.612Z,7236.00
2022-08-26T13:39:07.610Z,9116.00
2022-08-26T13:40:07.762Z,19360.00
2022-08-26T13:41:07.621Z,20928.00
2022-08-26T13:42:07.615Z,21312.00
2022-08-26T13:43:07.812Z,21184.00
2022-08-26T13:44:07.618Z,20832.00
2022-08-26T13:45:07.625Z,20992.00
2022-08-26T13:46:07.636Z,20800.00
2022-08-26T13:47:07.624Z,20480.00
2022-08-26T13:48:07.810Z,21408.00
2022-08-26T13:49:07.624Z,21472.00
2022-08-26T13:50:07.631Z,21696.00
2022-08-26T13:51:07.637Z,21952.00
2022-08-26T13:52:07.647Z,20928.00
2022-08-26T13:53:07.634Z,21792.00
2022-08-26T13:54:07.633Z,22976.00
2022-08-26T13:55:07.638Z,27808.00
2022-08-26T13:56:10.841Z,34048.00
2022-08-26T13:57:07.643Z,37088.00
2022-08-26T13:58:07.773Z,28960.00
2022-08-26T13:59:07.649Z,38560.00
2022-08-26T14:00:07.663Z,33888.00
2022-08-26T14:01:07.686Z,8988.00
2022-08-26T14:02:07.644Z,7648.00
2022-08-26T14:03:12.616Z,7632.00
2022-08-26T14:04:07.658Z,9620.00
2022-08-26T14:05:07.158Z,44992.00
2022-08-26T14:06:06.184Z,14236.00
2022-08-26T14:07:06.176Z,28160.00
2022-08-26T14:08:06.244Z,17952.00
2022-08-26T14:09:08.191Z,15536.00
2022-08-26T14:10:06.208Z,21312.00
2022-08-26T14:11:06.224Z,24896.00
2022-08-26T14:12:06.243Z,22880.00
2022-08-26T14:13:07.533Z,12988.00
2022-08-26T14:14:08.175Z,11760.00
2022-08-26T14:15:07.276Z,23168.00
2022-08-26T14:16:06.335Z,28640.00
2022-08-26T14:17:06.289Z,41344.00
2022-08-26T14:18:06.589Z,45024.00
2022-08-26T14:19:08.192Z,46432.00
2022-08-26T14:20:06.319Z,44672.00
2022-08-26T14:21:08.180Z,40448.00
2022-08-26T14:22:06.346Z,37760.00
2022-08-26T14:23:14.438Z,37280.00
2022-08-26T14:24:06.367Z,41536.00
2022-08-26T14:25:07.402Z,42816.00
2022-08-26T14:26:08.291Z,42240.00
2022-08-26T14:27:06.399Z,40992.00
2022-08-26T14:28:08.190Z,37984.00
2022-08-26T14:29:07.694Z,35968.00
2022-08-26T14:30:06.451Z,38208.00
2022-08-26T14:31:08.205Z,39808.00
2022-08-26T14:32:06.463Z,44128.00
2022-08-26T14:33:08.319Z,44064.00
2022-08-26T14:34:08.201Z,45248.00
2022-08-26T14:35:06.494Z,45600.00
2022-08-26T14:36:08.189Z,44288.00
2022-08-26T14:37:08.189Z,42496.00
2022-08-26T14:38:08.217Z,43360.00
2022-08-26T14:39:06.538Z,43136.00
2022-08-26T14:40:08.330Z,43104.00
2022-08-26T14:41:08.195Z,40896.00
2022-08-26T14:42:06.584Z,36672.00
2022-08-26T14:43:08.221Z,39712.00
2022-08-26T14:44:07.728Z,42976.00
2022-08-26T14:45:08.229Z,41152.00
2022-08-26T14:46:07.668Z,33056.00
2022-08-26T14:47:06.637Z,29984.00
2022-08-26T14:48:08.329Z,30752.00
2022-08-26T14:49:10.574Z,33152.00
2022-08-26T14:50:08.225Z,30208.00
2022-08-26T14:51:08.214Z,34208.00
2022-08-26T14:52:08.209Z,34432.00
2022-08-26T14:53:08.204Z,36320.00
2022-08-26T14:54:08.256Z,37504.00
2022-08-26T14:55:06.727Z,36256.00
2022-08-26T14:56:06.748Z,34400.00
2022-08-26T14:57:08.739Z,30208.00
2022-08-26T14:58:06.764Z,28960.00
2022-08-26T14:59:06.773Z,32960.00
2022-08-26T15:00:06.789Z,32992.00
2022-08-26T15:01:06.800Z,34880.00
2022-08-26T15:02:08.886Z,35904.00
2022-08-26T15:03:07.001Z,34400.00
2022-08-26T15:04:06.837Z,31680.00
2022-08-26T15:05:08.242Z,31392.00
2022-08-26T15:06:06.868Z,33536.00
2022-08-26T15:07:08.757Z,32928.00
2022-08-26T15:08:07.008Z,29280.00
2022-08-26T15:09:08.731Z,26880.00
2022-08-26T15:10:08.734Z,18976.00
2022-08-26T15:11:08.768Z,15472.00
2022-08-26T15:12:08.769Z,10692.00
2022-08-26T15:13:08.743Z,10904.00
2022-08-26T15:14:18.963Z,10688.00
2022-08-26T15:15:08.744Z,12244.00
2022-08-26T15:16:08.827Z,11956.00
2022-08-26T15:17:08.754Z,10792.00
2022-08-26T15:18:08.845Z,4532.00
2022-08-26T15:19:08.759Z,4004.00
2022-08-26T15:20:08.744Z,3284.00
2022-08-26T15:21:08.747Z,2764.00
2022-08-26T15:22:08.777Z,2564.00
2022-08-26T15:23:08.988Z,2540.00
2022-08-26T15:24:08.769Z,2208.00
2022-08-26T15:25:08.783Z,1900.00
2022-08-26T15:26:08.755Z,2156.00
2022-08-26T15:27:08.775Z,3020.00
2022-08-26T15:28:08.755Z,5296.00
2022-08-26T15:29:08.756Z,2792.00
2022-08-26T15:30:08.775Z,4308.00
2022-08-26T15:31:08.819Z,4252.00
2022-08-26T15:32:08.840Z,4256.00
2022-08-26T15:33:14.971Z,2524.00
2022-08-26T15:34:07.133Z,2284.00
2022-08-26T15:35:09.452Z,2408.00
2022-08-26T15:36:07.145Z,2388.00
2022-08-26T15:37:07.185Z,2108.00
2022-08-26T15:38:08.862Z,1748.00
2022-08-26T15:39:08.847Z,1540.00
2022-08-26T15:40:07.222Z,1436.00
2022-08-26T15:41:08.779Z,1384.00
2022-08-26T15:42:08.790Z,1292.00
2022-08-26T15:43:25.750Z,1168.00
2022-08-26T15:44:08.789Z,1096.00
2022-08-26T15:45:07.223Z,1088.00
2022-08-26T15:46:08.820Z,1096.00
2022-08-26T15:47:08.781Z,1080.00
2022-08-26T15:48:08.800Z,1028.00
2022-08-26T15:49:08.779Z,1008.00
2022-08-26T15:50:08.798Z,1004.00
2022-08-26T15:51:08.800Z,980.00
2022-08-26T15:52:08.783Z,972.00
2022-08-26T15:53:08.787Z,936.00
2022-08-26T15:54:10.349Z,884.00
2022-08-26T15:55:07.266Z,824.00
2022-08-26T15:56:08.804Z,736.00
2022-08-26T15:57:11.486Z,632.00
2022-08-26T15:58:07.400Z,540.00
2022-08-26T15:59:07.284Z,516.00
2022-08-26T16:00:07.298Z,528.00
2022-08-26T16:12:24.908Z,448.00
2022-08-26T16:13:24.310Z,500.00
2022-08-26T16:14:24.421Z,576.00
2022-08-26T16:15:24.905Z,632.00
2022-08-26T16:16:24.988Z,672.00
2022-08-26T16:17:23.334Z,736.00
2022-08-26T16:18:24.896Z,848.00
2022-08-26T16:19:24.912Z,936.00
2022-08-26T16:20:23.337Z,980.00
2022-08-26T16:21:24.351Z,1020.00
2022-08-26T16:22:23.342Z,1016.00
2022-08-26T16:23:24.932Z,972.00
2022-08-26T16:24:29.731Z,916.00
2022-08-26T16:25:24.919Z,852.00
2022-08-26T16:26:24.424Z,808.00
2022-08-26T16:27:23.365Z,788.00
2022-08-26T16:28:25.006Z,792.00
2022-08-26T16:29:23.364Z,824.00
2022-08-26T16:30:24.935Z,876.00
2022-08-26T16:31:24.454Z,916.00
2022-08-26T16:32:23.377Z,948.00
2022-08-26T16:33:29.569Z,1024.00
2022-08-26T16:34:23.396Z,1148.00
2022-08-26T16:35:24.925Z,1288.00
2022-08-26T16:36:24.917Z,1424.00
2022-08-26T16:37:24.929Z,1564.00
2022-08-26T16:38:24.920Z,1668.00
2022-08-26T16:39:24.920Z,1708.00
2022-08-26T16:40:25.052Z,1712.00
2022-08-26T16:41:24.942Z,1716.00
2022-08-26T16:42:24.948Z,1760.00
2022-08-26T16:43:24.927Z,1848.00
2022-08-26T16:44:24.926Z,1932.00
2022-08-26T16:45:23.425Z,2024.00
2022-08-26T16:46:24.998Z,2052.00
2022-08-26T16:47:24.928Z,2060.00
2022-08-26T16:48:24.947Z,2040.00
2022-08-26T16:49:25.432Z,1992.00
2022-08-26T16:50:25.432Z,1884.00
2022-08-26T16:51:25.449Z,1824.00
2022-08-26T16:52:25.432Z,1824.00
2022-08-26T16:53:25.449Z,1828.00
2022-08-26T16:54:25.443Z,1792.00
2022-08-26T16:55:25.437Z,1748.00
2022-08-26T16:56:27.658Z,1660.00
2022-08-26T16:57:25.447Z,1572.00
2022-08-26T16:58:25.474Z,1520.00
2022-08-26T16:59:25.445Z,1460.00
2022-08-26T17:00:25.454Z,1424.00
2022-08-26T17:01:23.566Z,1388.00
2022-08-26T17:02:25.487Z,1352.00
2022-08-26T17:03:25.461Z,1320.00
2022-08-26T17:04:23.500Z,1284.00
2022-08-26T17:05:23.499Z,1252.00
2022-08-26T17:06:25.453Z,1232.00
2022-08-26T17:07:25.471Z,1216.00
2022-08-26T17:08:28.697Z,1192.00
2022-08-26T17:09:25.473Z,1172.00
2022-08-26T17:10:25.451Z,1164.00
2022-08-26T17:11:25.454Z,1156.00
2022-08-26T17:12:25.471Z,1140.00
2022-08-26T17:13:31.646Z,1132.00
2022-08-26T17:14:24.528Z,1144.00
2022-08-26T17:15:25.700Z,1172.00
2022-08-26T17:16:26.918Z,1192.00
2022-08-26T17:17:25.475Z,1184.00
2022-08-26T17:18:25.466Z,1188.00
2022-08-26T17:19:23.547Z,1196.00
2022-08-26T17:20:25.468Z,1192.00
2022-08-26T17:21:25.479Z,1188.00
2022-08-26T17:22:25.470Z,1188.00
2022-08-26T17:23:23.564Z,1192.00
2022-08-26T17:24:23.565Z,1180.00
2022-08-26T17:25:23.577Z,1144.00
2022-08-26T17:26:24.992Z,1100.00
2022-08-26T17:27:23.571Z,1048.00
2022-08-26T17:28:23.582Z,1008.00
2022-08-26T17:29:23.587Z,976.00
2022-08-26T17:30:23.595Z,952.00
2022-08-26T17:31:25.530Z,932.00
2022-08-26T17:32:23.587Z,900.00
2022-08-26T17:33:25.337Z,848.00
2022-08-26T17:34:23.598Z,808.00
2022-08-26T17:35:23.611Z,760.00
2022-08-26T17:36:28.081Z,708.00
2022-08-26T17:37:25.497Z,652.00
2022-08-26T17:38:25.511Z,604.00
2022-08-26T17:39:25.497Z,572.00
2022-08-26T17:40:23.664Z,540.00
2022-08-26T17:41:25.004Z,508.00
2022-08-26T17:42:31.562Z,480.00
2022-08-26T17:43:25.495Z,452.00
2022-08-26T17:44:24.629Z,424.00
2022-08-26T17:45:23.632Z,408.00
2022-08-26T17:46:25.590Z,396.00
2022-08-26T17:47:23.634Z,388.00
2022-08-26T17:48:25.508Z,372.00
2022-08-26T17:49:23.642Z,356.00
2022-08-26T17:50:25.497Z,304.00
2022-08-26T17:51:25.013Z,260.00
2022-08-26T17:52:25.500Z,240.00
2022-08-26T17:53:23.669Z,232.00
2022-08-26T17:54:25.505Z,228.00
2022-08-26T17:55:25.508Z,224.00
2022-08-26T17:56:25.604Z,220.00
2022-08-26T17:57:23.671Z,208.00
2022-08-26T17:58:25.509Z,184.00
2022-08-26T17:59:25.530Z,156.00
2022-08-26T18:00:23.677Z,132.00
2022-08-26T18:01:25.569Z,120.00
2022-08-26T18:02:23.723Z,112.00
2022-08-26T18:03:25.529Z,104.00
2022-08-26T18:04:25.562Z,104.00
2022-08-26T18:05:25.549Z,100.00
2022-08-26T18:06:25.513Z,92.00
2022-08-26T18:07:25.531Z,92.00
2022-08-26T18:08:23.697Z,92.00
2022-08-26T18:09:23.698Z,88.00
2022-08-26T18:10:23.710Z,76.00
2022-08-26T18:11:23.705Z,60.00
2022-08-26T18:12:25.534Z,52.00
2022-08-26T18:13:25.536Z,48.00
2022-08-26T18:14:25.535Z,48.00
2022-08-26T18:15:25.644Z,48.00
2022-08-26T18:16:25.530Z,48.00
2022-08-26T18:17:25.527Z,48.00
2022-08-26T18:18:25.536Z,44.00
2022-08-26T18:19:25.545Z,44.00
2022-08-26T18:20:25.547Z,40.00
2022-08-26T18:21:25.545Z,36.00
2022-08-26T18:22:25.539Z,32.00
2022-08-26T18:23:25.559Z,32.00
2022-08-26T18:24:25.548Z,28.00
2022-08-26T18:25:25.548Z,28.00
2022-08-26T18:26:25.540Z,28.00
2022-08-26T18:27:25.550Z,28.00
2022-08-26T18:28:25.544Z,24.00
2022-08-26T18:29:23.749Z,24.00
2022-08-26T18:30:23.765Z,20.00
2022-08-26T18:31:23.818Z,20.00
2022-08-26T18:32:23.762Z,16.00
2022-08-26T18:33:25.058Z,16.00
2022-08-26T18:34:25.558Z,16.00
2022-08-26T18:35:23.760Z,12.00
2022-08-26T18:36:23.805Z,12.00
2022-08-26T18:37:25.752Z,8.00
2022-08-26T18:38:23.801Z,8.00
2022-08-26T18:39:25.562Z,8.00
2022-08-26T18:40:25.598Z,4.00
2022-08-26T18:41:25.553Z,8.00
2022-08-26T18:42:25.554Z,8.00
2022-08-26T18:43:25.567Z,4.00
2022-08-26T18:44:25.557Z,4.00
2022-08-26T18:45:25.584Z,4.00
2022-08-26T18:46:25.311Z,0.00
2022-08-26T18:47:25.558Z,0.00
2022-08-26T18:48:23.796Z,4.00
2022-08-26T18:49:25.578Z,0.00
2022-08-26T18:50:25.579Z,0.00
2022-08-26T18:51:25.574Z,0.00
2022-08-26T18:52:25.573Z,0.00
2022-08-26T18:53:25.580Z,0.00
2022-08-26T18:54:25.581Z,0.00
2022-08-26T18:55:25.579Z,0.00
2022-08-26T18:56:25.578Z,0.00
2022-08-26T18:57:25.570Z,0.00
2022-08-26T18:58:25.572Z,0.00
2022-08-26T18:59:29.486Z,0.00
2022-08-26T19:00:25.087Z,0.00
2022-08-26T19:01:27.396Z,0.00
2022-08-26T19:02:24.045Z,0.00
2022-08-26T19:03:23.830Z,0.00
2022-08-26T19:04:25.114Z,0.00
2022-08-26T19:05:23.833Z,0.00
2022-08-26T19:06:23.832Z,0.00
2022-08-26T19:07:23.836Z,0.00
2022-08-26T19:08:25.603Z,0.00
2022-08-26T19:09:23.841Z,0.00
2022-08-26T19:10:23.842Z,0.00
2022-08-26T19:11:31.468Z,0.00
2022-08-26T19:12:26.851Z,0.00
2022-08-26T19:13:23.851Z,0.00
2022-08-26T19:14:25.604Z,0.00
2022-08-26T19:15:25.606Z,0.00
2022-08-26T19:16:23.886Z,0.00
2022-08-26T19:17:23.860Z,0.00
2022-08-26T19:18:23.863Z,0.00
2022-08-26T19:19:23.889Z,0.00
2022-08-26T19:20:25.609Z,0.00
2022-08-26T19:21:24.873Z,0.00
2022-08-26T19:22:23.868Z,0.00
2022-08-26T19:23:31.368Z,0.00
2022-08-26T19:24:27.478Z,0.00
2022-08-26T19:25:24.875Z,0.00
2022-08-26T19:26:25.607Z,0.00
2022-08-26T19:27:23.885Z,0.00
2022-08-26T19:28:25.613Z,0.00
2022-08-26T19:29:25.630Z,0.00
2022-08-26T19:30:25.705Z,0.00
2022-08-26T19:31:25.697Z,0.00
2022-08-26T19:32:25.612Z,0.00
2022-08-26T19:33:25.611Z,0.00
2022-08-26T19:34:23.890Z,0.00
2022-08-26T19:35:25.626Z,0.00
2022-08-26T19:36:25.643Z,0.00
2022-08-26T19:37:23.897Z,0.00
2022-08-26T19:38:23.905Z,0.00
2022-08-26T19:39:23.913Z,0.00
2022-08-26T19:40:25.789Z,0.00
2022-08-26T19:41:37.128Z,0.00
2022-08-26T19:42:23.905Z,0.00
2022-08-26T19:43:25.621Z,0.00
2022-08-26T19:44:24.934Z,0.00
2022-08-26T19:45:25.671Z,0.00
2022-08-26T19:46:25.853Z,0.00
2022-08-26T19:47:25.624Z,0.00
2022-08-26T19:48:25.645Z,0.00
2022-08-26T19:49:25.649Z,0.00